createdAt,value
2019-04-27T00:00:57.220Z,100154.23
2019-04-27T00:03:41.385Z,100157.44
2019-04-27T00:06:14.203Z,100163.13
2019-04-27T00:08:48.234Z,100165.55
2019-04-27T00:11:41.405Z,100166.33
2019-04-27T00:14:10.368Z,100171.48
2019-04-27T00:16:53.907Z,100171.99
2019-04-27T00:19:40.824Z,100170.90
2019-04-27T00:22:13.255Z,100160.92
2019-04-27T00:24:44.165Z,100166.88
2019-04-27T00:27:13.877Z,100164.41
2019-04-27T00:29:43.547Z,100168.45
2019-04-27T00:32:13.329Z,100167.11
2019-04-27T00:34:43.183Z,100161.41
2019-04-27T00:37:26.300Z,100164.12
2019-04-27T00:40:00.257Z,100169.25
2019-04-27T00:42:29.863Z,100165.77
2019-04-27T00:44:59.462Z,100159.31
2019-04-27T00:47:29.151Z,100163.36
2019-04-27T00:49:58.744Z,100162.57
2019-04-27T00:52:28.355Z,100149.63
2019-04-27T00:54:57.988Z,100140.70
2019-04-27T00:57:33.215Z,100137.44
2019-04-27T01:00:20.531Z,100131.23
2019-04-27T01:02:53.580Z,100132.60
2019-04-27T01:05:24.977Z,100132.86
2019-04-27T01:07:54.577Z,100133.39
2019-04-27T01:10:24.161Z,100132.33
2019-04-27T01:12:53.775Z,100128.00
2019-04-27T01:15:23.867Z,100121.53
2019-04-27T01:17:53.424Z,100125.28
2019-04-27T01:20:23.030Z,100120.44
2019-04-27T01:22:52.642Z,100129.05
2019-04-27T01:25:23.877Z,100140.38
2019-04-27T01:27:59.550Z,100140.41
2019-04-27T01:30:36.102Z,100130.93
2019-04-27T01:33:05.887Z,100132.81
2019-04-27T01:35:35.483Z,100125.23
2019-04-27T01:38:05.092Z,100137.38
2019-04-27T01:40:34.701Z,100140.86
2019-04-27T01:43:04.306Z,100142.78
2019-04-27T01:45:33.908Z,100151.43
2019-04-27T01:48:03.679Z,100153.01
2019-04-27T01:50:33.261Z,100155.73
2019-04-27T01:53:02.937Z,100150.35
2019-04-27T01:55:32.544Z,100159.55
2019-04-27T01:58:02.225Z,100156.62
2019-04-27T02:00:43.856Z,100158.78
2019-04-27T02:03:15.095Z,100156.09
2019-04-27T02:05:46.506Z,100156.95
2019-04-27T02:08:16.092Z,100151.55
2019-04-27T02:10:45.768Z,100148.06
2019-04-27T02:13:15.557Z,100149.11
2019-04-27T02:15:45.224Z,100150.19
2019-04-27T02:18:14.832Z,100138.05
2019-04-27T02:20:44.640Z,100131.54
2019-04-27T02:23:14.330Z,100133.68
2019-04-27T02:25:43.928Z,100136.33
2019-04-27T02:28:15.182Z,100138.23
2019-04-27T02:31:02.723Z,100146.58
2019-04-27T02:33:34.650Z,100144.67
2019-04-27T02:36:04.498Z,100140.64
2019-04-27T02:38:34.103Z,100134.88
2019-04-27T02:41:04.603Z,100135.69
2019-04-27T02:43:35.840Z,100138.09
2019-04-27T02:46:05.515Z,100143.48
2019-04-27T02:48:51.927Z,100145.68
2019-04-27T02:51:10.076Z,100157.27
2019-04-27T02:53:56.180Z,100157.27
2019-04-27T02:56:26.167Z,100157.52
2019-04-27T02:58:55.940Z,100149.17
2019-04-27T03:01:27.184Z,100144.84
2019-04-27T03:03:56.782Z,100138.91
2019-04-27T03:06:26.384Z,100142.50
2019-04-27T03:08:56.005Z,100143.89
2019-04-27T03:11:27.280Z,100139.40
2019-04-27T03:14:28.408Z,100134.88
2019-04-27T03:16:50.413Z,100123.05
2019-04-27T03:19:22.097Z,100113.34
2019-04-27T03:22:05.200Z,100115.77
2019-04-27T03:24:45.450Z,100118.47
2019-04-27T03:27:16.684Z,100126.84
2019-04-27T03:29:46.451Z,100130.34
2019-04-27T03:32:16.139Z,100128.74
2019-04-27T03:34:45.752Z,100125.20
2019-04-27T03:37:15.352Z,100122.24
2019-04-27T03:39:45.048Z,100125.98
2019-04-27T03:42:15.901Z,100123.82
2019-04-27T03:44:45.516Z,100124.38
2019-04-27T03:47:15.125Z,100124.94
2019-04-27T03:49:46.104Z,100125.73
2019-04-27T03:52:19.708Z,100117.64
2019-04-27T03:54:50.551Z,100125.71
2019-04-27T03:57:29.617Z,100134.08
2019-04-27T04:00:03.255Z,100122.80
2019-04-27T04:02:32.852Z,100121.45
2019-04-27T04:05:03.399Z,100125.77
2019-04-27T04:07:33.004Z,100127.91
2019-04-27T04:10:02.707Z,100127.12
2019-04-27T04:12:50.054Z,100129.52
2019-04-27T04:15:23.977Z,100131.92
2019-04-27T04:17:53.573Z,100137.02
2019-04-27T04:20:23.210Z,100141.57
2019-04-27T04:22:52.796Z,100146.69
2019-04-27T04:25:22.416Z,100142.95
2019-04-27T04:27:52.019Z,100150.73
2019-04-27T04:30:21.634Z,100151.81
2019-04-27T04:32:52.005Z,100159.65
2019-04-27T04:35:25.490Z,100152.92
2019-04-27T04:37:55.094Z,100156.41
2019-04-27T04:40:32.138Z,100154.02
2019-04-27T04:43:03.657Z,100153.76
2019-04-27T04:45:45.795Z,100149.71
2019-04-27T04:48:17.049Z,100156.16
2019-04-27T04:50:46.665Z,100158.11
2019-04-27T04:53:16.283Z,100153.27
2019-04-27T04:55:46.163Z,100157.80
2019-04-27T04:58:15.771Z,100150.46
2019-04-27T05:00:45.405Z,100144.47
2019-04-27T05:03:14.994Z,100145.52
2019-04-27T05:05:44.638Z,100144.96
2019-04-27T05:08:14.247Z,100142.50
2019-04-27T05:10:43.869Z,100140.02
2019-04-27T05:13:13.457Z,100136.48
2019-04-27T05:15:43.102Z,100139.16
2019-04-27T05:18:12.708Z,100143.46
2019-04-27T05:20:58.671Z,100147.23
2019-04-27T05:23:28.770Z,100150.19
2019-04-27T05:25:59.281Z,100156.38
2019-04-27T05:28:29.891Z,100150.67
2019-04-27T05:31:00.639Z,100146.90
2019-04-27T05:33:30.279Z,100150.98
2019-04-27T05:35:59.888Z,100152.33
2019-04-27T05:38:29.629Z,100151.73
2019-04-27T05:40:59.342Z,100150.05
2019-04-27T05:43:33.428Z,100152.91
2019-04-27T05:46:40.315Z,100153.10
2019-04-27T05:49:11.561Z,100146.56
2019-04-27T05:51:42.040Z,100149.70
2019-04-27T05:54:11.666Z,100151.27
2019-04-27T05:56:41.687Z,100149.27
2019-04-27T05:59:14.465Z,100148.94
2019-04-27T06:01:42.625Z,100154.06
2019-04-27T06:04:12.230Z,100153.41
2019-04-27T06:06:41.840Z,100151.65
2019-04-27T06:09:11.456Z,100153.70
2019-04-27T06:11:41.063Z,100152.02
2019-04-27T06:14:10.675Z,100150.73
2019-04-27T06:16:40.296Z,100148.22
2019-04-27T06:19:09.893Z,100138.83
2019-04-27T06:21:40.108Z,100140.52
2019-04-27T06:24:10.011Z,100135.23
2019-04-27T06:26:40.080Z,100140.03
2019-04-27T06:29:09.822Z,100132.01
2019-04-27T06:31:39.784Z,100126.42
2019-04-27T06:34:09.918Z,100132.79
2019-04-27T06:36:39.654Z,100134.89
2019-04-27T06:39:09.999Z,100144.44
2019-04-27T06:41:40.177Z,100137.40
2019-04-27T06:44:11.431Z,100138.35
2019-04-27T06:46:41.279Z,100137.16
2019-04-27T06:49:11.256Z,100132.22
2019-04-27T06:51:40.986Z,100138.95
2019-04-27T06:54:10.616Z,100139.27
2019-04-27T06:56:40.224Z,100143.78
2019-04-27T06:59:09.841Z,100139.55
2019-04-27T07:01:39.452Z,100147.01
2019-04-27T07:04:10.878Z,100147.01
2019-04-27T07:06:52.879Z,100146.91
2019-04-27T07:09:11.786Z,100145.13
2019-04-27T07:11:41.382Z,100142.14
2019-04-27T07:14:11.703Z,100150.16
2019-04-27T07:16:41.459Z,100139.17
2019-04-27T07:19:11.091Z,100140.62
2019-04-27T07:21:40.672Z,100138.33
2019-04-27T07:24:10.278Z,100128.26
2019-04-27T07:26:39.884Z,100136.13
2019-04-27T07:29:09.755Z,100130.20
2019-04-27T07:31:40.120Z,100130.12
2019-04-27T07:34:10.092Z,100129.89
2019-04-27T07:36:39.692Z,100135.20
2019-04-27T07:39:11.610Z,100131.95
2019-04-27T07:41:41.013Z,100126.94
2019-04-27T07:44:12.285Z,100125.50
2019-04-27T07:46:41.887Z,100131.79
2019-04-27T07:49:11.509Z,100134.86
2019-04-27T07:51:41.118Z,100136.75
2019-04-27T07:54:10.747Z,100138.43
2019-04-27T07:56:40.364Z,100137.75
2019-04-27T07:59:09.976Z,100133.91
2019-04-27T08:01:39.582Z,100134.73
2019-04-27T08:04:09.309Z,100135.09
2019-04-27T08:06:38.943Z,100133.09
2019-04-27T08:09:09.409Z,100133.95
2019-04-27T08:11:39.395Z,100126.42
2019-04-27T08:14:09.129Z,100128.71
2019-04-27T08:16:38.984Z,100129.91
2019-04-27T08:19:09.924Z,100135.18
2019-04-27T08:21:44.300Z,100129.75
2019-04-27T08:24:11.191Z,100129.48
2019-04-27T08:26:51.549Z,100129.70
2019-04-27T08:29:22.805Z,100127.12
2019-04-27T08:32:00.161Z,100125.63
2019-04-27T08:34:32.903Z,100123.73
2019-04-27T08:37:03.615Z,100122.71
2019-04-27T08:39:33.394Z,100123.52
2019-04-27T08:42:03.174Z,100121.59
2019-04-27T08:44:32.790Z,100120.39
2019-04-27T08:47:02.410Z,100120.28
2019-04-27T08:49:32.006Z,100120.14
2019-04-27T08:52:01.961Z,100122.00
2019-04-27T08:54:31.619Z,100117.36
2019-04-27T08:57:01.721Z,100120.07
2019-04-27T08:59:31.394Z,100115.03
2019-04-27T09:02:00.998Z,100121.36
2019-04-27T09:04:30.601Z,100117.28
2019-04-27T09:07:01.877Z,100119.02
2019-04-27T09:09:42.024Z,100119.63
2019-04-27T09:12:29.459Z,100105.22
2019-04-27T09:15:03.142Z,100110.56
2019-04-27T09:17:34.390Z,100107.74
2019-04-27T09:20:13.384Z,100110.72
2019-04-27T09:22:43.008Z,100108.74
2019-04-27T09:25:12.762Z,100110.94
2019-04-27T09:27:42.374Z,100107.02
2019-04-27T09:30:12.111Z,100100.88
2019-04-27T09:32:41.718Z,100102.77
2019-04-27T09:35:11.378Z,100108.94
2019-04-27T09:37:40.985Z,100112.62
2019-04-27T09:40:10.831Z,100111.53
2019-04-27T09:42:40.612Z,100119.80
2019-04-27T09:45:10.727Z,100102.63
2019-04-27T09:47:40.334Z,100103.91
2019-04-27T09:50:10.443Z,100101.87
2019-04-27T09:52:40.045Z,100108.34
2019-04-27T09:55:09.973Z,100106.19
2019-04-27T09:57:39.586Z,100100.38
2019-04-27T10:00:12.163Z,100103.83
2019-04-27T10:02:41.778Z,100094.30
2019-04-27T10:05:11.783Z,100091.39
2019-04-27T10:07:41.399Z,100086.61
2019-04-27T10:10:11.394Z,100088.49
2019-04-27T10:12:41.003Z,100085.52
2019-04-27T10:15:10.926Z,100081.95
2019-04-27T10:17:40.544Z,100083.69
2019-04-27T10:20:10.840Z,100081.95
2019-04-27T10:22:43.553Z,100080.33
2019-04-27T10:25:22.876Z,100092.20
2019-04-27T10:27:58.400Z,100084.02
2019-04-27T10:30:29.192Z,100083.19
2019-04-27T10:32:58.788Z,100078.42
2019-04-27T10:35:28.383Z,100072.45
2019-04-27T10:37:57.985Z,100069.67
2019-04-27T10:40:28.447Z,100069.61
2019-04-27T10:42:58.121Z,100074.00
2019-04-27T10:45:27.716Z,100072.03
2019-04-27T10:47:57.326Z,100059.76
2019-04-27T10:50:26.923Z,100059.44
2019-04-27T10:52:59.244Z,100060.09
2019-04-27T10:55:27.929Z,100055.86
2019-04-27T10:57:57.551Z,100059.48
2019-04-27T11:00:40.715Z,100050.22
2019-04-27T11:03:10.969Z,100058.11
2019-04-27T11:05:43.157Z,100048.38
2019-04-27T11:08:12.775Z,100035.23
2019-04-27T11:10:42.522Z,100040.71
2019-04-27T11:13:12.127Z,100037.08
2019-04-27T11:15:41.798Z,100030.27
2019-04-27T11:18:11.408Z,100024.67
2019-04-27T11:20:41.006Z,100027.35
2019-04-27T11:23:12.365Z,100016.62
2019-04-27T11:25:41.952Z,100017.27
2019-04-27T11:28:11.557Z,100013.41
2019-04-27T11:30:41.168Z,100021.23
2019-04-27T11:33:10.790Z,100012.82
2019-04-27T11:35:44.822Z,100005.48
2019-04-27T11:38:14.424Z,100005.70
2019-04-27T11:40:44.019Z,100012.27
2019-04-27T11:43:13.627Z,100011.72
2019-04-27T11:45:43.212Z,100009.42
2019-04-27T11:48:12.972Z,100011.84
2019-04-27T11:50:42.557Z,100007.19
2019-04-27T11:53:22.062Z,100006.55
2019-04-27T11:55:43.506Z,99992.20
2019-04-27T11:58:13.112Z,99996.61
2019-04-27T12:00:42.729Z,99987.33
2019-04-27T12:03:12.341Z,99994.51
2019-04-27T12:05:41.937Z,99990.98
2019-04-27T12:08:11.549Z,99989.53
2019-04-27T12:10:41.145Z,99982.94
2019-04-27T12:13:10.750Z,99985.28
2019-04-27T12:15:40.348Z,99981.17
2019-04-27T12:18:09.958Z,99981.06
2019-04-27T12:20:39.550Z,99983.08
2019-04-27T12:23:09.154Z,99984.55
2019-04-27T12:25:38.750Z,99990.58
2019-04-27T12:28:27.074Z,99992.83
2019-04-27T12:30:58.231Z,99990.33
2019-04-27T12:33:27.877Z,100002.66
2019-04-27T12:35:57.469Z,99995.77
2019-04-27T12:38:28.300Z,100005.83
2019-04-27T12:40:57.961Z,99990.27
2019-04-27T12:43:27.561Z,99998.50
2019-04-27T12:45:57.441Z,100013.25
2019-04-27T12:48:27.207Z,100009.22
2019-04-27T12:50:56.834Z,100005.70
2019-04-27T12:53:30.866Z,99996.25
2019-04-27T12:56:02.117Z,99991.06
2019-04-27T12:58:33.362Z,99995.09
2019-04-27T13:01:07.282Z,99989.72
2019-04-27T13:03:36.366Z,99991.27
2019-04-27T13:06:06.094Z,99976.89
2019-04-27T13:08:35.838Z,99987.44
2019-04-27T13:11:06.048Z,99969.63
2019-04-27T13:13:36.815Z,99966.88
2019-04-27T13:16:06.703Z,99959.60
2019-04-27T13:18:36.517Z,99955.66
2019-04-27T13:21:06.192Z,99946.78
2019-04-27T13:23:37.149Z,99940.37
2019-04-27T13:26:07.075Z,99930.83
2019-04-27T13:28:36.669Z,99936.30
2019-04-27T13:31:06.773Z,99933.86
2019-04-27T13:33:36.558Z,99943.16
2019-04-27T13:36:07.529Z,99945.23
2019-04-27T13:38:37.234Z,99941.35
2019-04-27T13:41:10.480Z,99938.16
2019-04-27T13:43:40.222Z,99936.45
2019-04-27T13:46:11.537Z,99936.23
2019-04-27T13:48:59.041Z,99939.44
2019-04-27T13:51:41.908Z,99936.20
2019-04-27T13:54:18.843Z,99930.68
2019-04-27T13:56:42.822Z,99925.50
2019-04-27T13:59:13.488Z,99916.09
2019-04-27T14:01:43.938Z,99908.84
2019-04-27T14:04:13.998Z,99903.87
2019-04-27T14:06:43.665Z,99906.89
2019-04-27T14:09:13.292Z,99900.77
2019-04-27T14:11:42.888Z,99902.81
2019-04-27T14:14:12.501Z,99902.36
2019-04-27T14:16:43.823Z,99897.09
2019-04-27T14:19:13.587Z,99897.96
2019-04-27T14:21:43.212Z,99895.19
2019-04-27T14:24:12.793Z,99890.67
2019-04-27T14:26:42.397Z,99876.00
2019-04-27T14:29:11.981Z,99873.70
2019-04-27T14:31:41.585Z,99868.80
2019-04-27T14:34:11.165Z,99863.41
2019-04-27T14:36:40.781Z,99865.99
2019-04-27T14:39:12.071Z,99860.91
2019-04-27T14:41:41.694Z,99857.86
2019-04-27T14:44:11.463Z,99846.12
2019-04-27T14:46:41.072Z,99842.48
2019-04-27T14:49:10.666Z,99839.55
2019-04-27T14:51:40.298Z,99836.73
2019-04-27T14:54:09.866Z,99833.58
2019-04-27T14:56:39.666Z,99835.42
2019-04-27T14:59:09.442Z,99832.38
2019-04-27T15:01:40.078Z,99834.91
2019-04-27T15:04:09.733Z,99824.76
2019-04-27T15:06:39.335Z,99828.92
2019-04-27T15:09:09.213Z,99834.14
2019-04-27T15:11:38.850Z,99837.63
2019-04-27T15:14:10.172Z,99830.84
2019-04-27T15:16:42.247Z,99838.73
2019-04-27T15:19:21.597Z,99833.31
2019-04-27T15:21:58.520Z,99836.04
2019-04-27T15:24:22.626Z,99850.70
2019-04-27T15:26:54.301Z,99866.34
2019-04-27T15:29:26.806Z,99894.13
2019-04-27T15:32:01.383Z,99892.36
2019-04-27T15:34:48.239Z,99887.91
2019-04-27T15:37:33.995Z,99895.77
2019-04-27T15:40:12.383Z,99884.97
2019-04-27T15:42:49.045Z,99898.76
2019-04-27T15:45:15.989Z,99896.02
2019-04-27T15:47:47.731Z,99904.36
2019-04-27T15:50:18.164Z,99901.83
2019-04-27T15:52:48.782Z,99909.24
2019-04-27T15:55:31.748Z,99912.05
2019-04-27T15:57:50.453Z,99903.33
2019-04-27T16:00:24.531Z,99910.46
2019-04-27T16:02:54.136Z,99914.00
2019-04-27T16:05:28.676Z,99908.41
2019-04-27T16:07:59.176Z,99909.34
2019-04-27T16:10:28.313Z,99917.69
2019-04-27T16:13:06.520Z,99916.19
2019-04-27T16:15:29.963Z,99916.09
2019-04-27T16:17:59.655Z,99914.24
2019-04-27T16:20:33.792Z,99917.81
2019-04-27T16:23:03.254Z,99916.91
2019-04-27T16:25:45.243Z,99923.48
2019-04-27T16:28:04.499Z,99919.30
2019-04-27T16:30:34.940Z,99911.59
2019-04-27T16:33:04.978Z,99914.52
2019-04-27T16:35:34.573Z,99914.12
2019-04-27T16:38:09.630Z,99908.53
2019-04-27T16:40:39.304Z,99905.86
2019-04-27T16:43:09.147Z,99909.61
2019-04-27T16:45:38.961Z,99914.80
2019-04-27T16:48:09.246Z,99917.83
2019-04-27T16:50:39.118Z,99920.77
2019-04-27T16:53:12.276Z,99916.97
2019-04-27T16:55:40.218Z,99920.70
2019-04-27T16:58:15.818Z,99923.36
2019-04-27T17:00:41.172Z,99921.34
2019-04-27T17:03:10.991Z,99927.15
2019-04-27T17:05:40.592Z,99922.02
2019-04-27T17:08:13.967Z,99940.09
2019-04-27T17:10:41.591Z,99924.77
2019-04-27T17:13:14.533Z,99940.44
2019-04-27T17:15:58.906Z,99940.44
2019-04-27T17:18:32.895Z,99939.92
2019-04-27T17:21:15.795Z,99938.67
2019-04-27T17:23:33.854Z,99948.60
2019-04-27T17:26:09.524Z,99942.27
2019-04-27T17:28:45.445Z,99940.54
2019-04-27T17:31:19.662Z,99941.66
2019-04-27T17:33:55.353Z,99948.07
2019-04-27T17:36:24.969Z,99960.28
2019-04-27T17:38:54.583Z,99956.30
2019-04-27T17:41:24.157Z,99952.23
2019-04-27T17:43:53.950Z,99958.98
2019-04-27T17:46:23.569Z,99960.89
2019-04-27T17:48:53.166Z,99959.98
2019-04-27T17:51:22.777Z,99955.00
2019-04-27T17:53:52.393Z,99959.85
2019-04-27T17:56:34.015Z,99957.41
2019-04-27T17:58:56.226Z,99952.73
2019-04-27T18:01:30.141Z,99963.45
2019-04-27T18:04:01.656Z,99951.69
2019-04-27T18:06:29.752Z,99957.34
2019-04-27T18:09:03.187Z,99955.30
2019-04-27T18:11:32.970Z,99947.39
2019-04-27T18:14:02.214Z,99954.65
2019-04-27T18:16:34.409Z,99960.80
2019-04-27T18:19:09.805Z,99961.98
2019-04-27T18:21:40.194Z,99957.94
2019-04-27T18:24:11.443Z,99961.08
2019-04-27T18:26:49.263Z,99963.78
2019-04-27T18:29:13.997Z,99971.52
2019-04-27T18:31:46.335Z,99977.63
2019-04-27T18:34:16.968Z,99982.24
2019-04-27T18:36:46.338Z,99990.05
2019-04-27T18:39:15.929Z,99990.13
2019-04-27T18:41:53.328Z,99999.89
2019-04-27T18:44:19.000Z,99993.79
2019-04-27T18:46:48.903Z,99996.80
2019-04-27T18:49:35.013Z,99997.80
2019-04-27T18:52:06.310Z,100011.38
2019-04-27T18:54:38.206Z,100000.33
2019-04-27T18:57:10.725Z,100003.81
2019-04-27T18:59:38.364Z,100003.73
2019-04-27T19:02:08.568Z,100004.70
2019-04-27T19:04:38.229Z,99999.17
2019-04-27T19:07:08.767Z,100007.16
2019-04-27T19:09:38.418Z,100011.59
2019-04-27T19:12:08.041Z,100010.69
2019-04-27T19:14:38.445Z,100009.28
2019-04-27T19:17:08.043Z,100011.13
2019-04-27T19:19:37.639Z,100010.53
2019-04-27T19:22:08.931Z,100010.20
2019-04-27T19:24:38.846Z,100007.97
2019-04-27T19:27:18.024Z,100013.09
2019-04-27T19:29:44.014Z,100008.98
2019-04-27T19:32:13.610Z,100010.34
2019-04-27T19:34:43.204Z,100017.63
2019-04-27T19:37:12.809Z,100015.46
2019-04-27T19:39:42.402Z,100020.05
2019-04-27T19:42:12.010Z,100016.00
2019-04-27T19:44:41.606Z,100019.95
2019-04-27T19:47:11.208Z,100030.81
2019-04-27T19:49:40.818Z,100047.05
2019-04-27T19:52:10.409Z,100046.21
2019-04-27T19:54:40.029Z,100037.08
2019-04-27T19:57:09.622Z,100042.09
2019-04-27T19:59:40.879Z,100042.21
2019-04-27T20:02:12.891Z,100037.14
2019-04-27T20:04:43.255Z,100044.34
2019-04-27T20:07:12.855Z,100033.23
2019-04-27T20:09:47.825Z,100032.37
2019-04-27T20:12:18.243Z,100038.52
2019-04-27T20:14:56.560Z,100037.92
2019-04-27T20:17:31.053Z,100042.98
2019-04-27T20:20:01.325Z,100041.91
2019-04-27T20:22:31.176Z,100048.97
2019-04-27T20:25:01.946Z,100052.70
2019-04-27T20:27:44.960Z,100057.04
2019-04-27T20:30:03.918Z,100058.11
2019-04-27T20:32:33.509Z,100064.04
2019-04-27T20:35:03.280Z,100061.94
2019-04-27T20:37:32.872Z,100061.69
2019-04-27T20:40:02.554Z,100068.50
2019-04-27T20:42:32.152Z,100058.48
2019-04-27T20:45:02.187Z,100059.33
2019-04-27T20:47:32.387Z,100051.23
2019-04-27T20:50:02.013Z,100047.75
2019-04-27T20:52:46.079Z,100064.73
2019-04-27T20:55:15.681Z,100076.88
2019-04-27T20:57:58.405Z,100083.39
2019-04-27T21:00:18.489Z,100097.53
2019-04-27T21:02:51.691Z,100108.32
2019-04-27T21:08:11.833Z,100117.27
2019-04-27T21:10:41.459Z,100127.30
2019-04-27T21:13:11.347Z,100127.59
2019-04-27T21:15:41.923Z,100121.45
2019-04-27T21:18:11.687Z,100122.53
2019-04-27T21:20:41.374Z,100122.53
2019-04-27T21:23:12.082Z,100123.86
2019-04-27T21:25:42.193Z,100123.89
2019-04-27T21:28:16.495Z,100124.72
2019-04-27T21:30:43.255Z,100121.20
2019-04-27T21:33:13.437Z,100125.80
2019-04-27T21:35:43.241Z,100130.70
2019-04-27T21:38:12.857Z,100132.61
2019-04-27T21:40:42.462Z,100137.47
2019-04-27T21:43:14.270Z,100133.21
2019-04-27T21:45:43.879Z,100134.30
2019-04-27T21:48:13.468Z,100140.78
2019-04-27T21:50:43.080Z,100137.83
2019-04-27T21:53:16.894Z,100132.99
2019-04-27T21:55:48.154Z,100145.91
2019-04-27T21:58:28.347Z,100149.97
2019-04-27T22:00:56.460Z,100151.56
2019-04-27T22:03:26.066Z,100151.85
2019-04-27T22:05:55.685Z,100150.23
2019-04-27T22:08:25.283Z,100157.50
2019-04-27T22:10:54.891Z,100146.98
2019-04-27T22:13:24.481Z,100148.03
2019-04-27T22:15:54.079Z,100145.08
2019-04-27T22:18:23.700Z,100144.81
2019-04-27T22:20:53.485Z,100144.55
2019-04-27T22:23:31.570Z,100145.34
2019-04-27T22:26:01.447Z,100146.41
2019-04-27T22:28:44.172Z,100148.02
2019-04-27T22:31:02.594Z,100152.33
2019-04-27T22:33:32.192Z,100157.19
2019-04-27T22:36:01.976Z,100154.50
2019-04-27T22:38:32.676Z,100158.52
2019-04-27T22:41:04.014Z,100164.17
2019-04-27T22:43:36.834Z,100168.22
2019-04-27T22:46:08.079Z,100168.50
2019-04-27T22:48:37.665Z,100169.84
2019-04-27T22:51:07.273Z,100173.33
2019-04-27T22:53:36.881Z,100171.16
2019-04-27T22:56:13.483Z,100170.91
2019-04-27T22:59:00.400Z,100179.00
2019-04-27T23:01:42.640Z,100186.27
2019-04-27T23:04:25.809Z,100185.48
2019-04-27T23:06:55.412Z,100181.98
2019-04-27T23:09:25.035Z,100183.56
2019-04-27T23:11:54.718Z,100193.56
2019-04-27T23:14:24.314Z,100190.32
2019-04-27T23:16:55.565Z,100188.69
2019-04-27T23:19:25.166Z,100194.62
2019-04-27T23:21:54.774Z,100194.66
2019-04-27T23:24:24.363Z,100194.92
2019-04-27T23:26:53.976Z,100194.66
2019-04-27T23:29:23.569Z,100198.16
2019-04-27T23:31:54.830Z,100203.28
2019-04-27T23:34:24.421Z,100205.46
2019-04-27T23:36:54.043Z,100208.95
2019-04-27T23:39:23.644Z,100204.39
2019-04-27T23:41:53.262Z,100207.61
2019-04-27T23:44:22.854Z,100205.45
2019-04-27T23:46:52.472Z,100201.70
2019-04-27T23:49:22.092Z,100201.95
2019-04-27T23:51:59.197Z,100202.50
2019-04-27T23:54:28.799Z,100200.61
2019-04-27T23:56:58.417Z,100198.45
2019-04-27T23:59:28.007Z,100194.67
